Sid Moller — WDF9421 — position and weather

sailwx.info

Track history (hours):
 
Tides and Currents Weather Stations Pressure Air Temp Water Temp Dewpoint Dewpoint Depression Visibility Wind Speed Wind Dir Waves Ship Positions

Sid Moller

Owner: Genesis Marine, LLC, Houston, TX. More information available from US FCC via Universal Licensing System and Coast Guard Vessel Documentation Center.

Last reported at 2018-Feb-20 07:52 UTC. Time now 2018-Feb-21 03:55 UTC.
Position N 29°46' W 095°06'.

Length 28 m; draft 3 m.

Type: Towing. MMSI: 367504980.

Date/timePositionNaut miles runAvg speedWind from/ knotsBaromVisibWave heightAir tempDewpointWater temp
2018-Feb-20 07:52N 29°46' W 095°06'0 0.0
2018-Feb-19 14:01N 29°46' W 095°06'0 0.0
2018-Feb-19 13:48N 29°46' W 095°06'0 0.0
2018-Feb-19 12:04N 29°46' W 095°06'1 4.2
2018-Feb-19 11:56N 29°46' W 095°06'3 6.6
2018-Feb-19 11:27N 29°44' W 095°03'3 6.2
2018-Feb-19 11:00N 29°42' W 095°00'3 6.8
2018-Feb-19 10:30N 29°39' W 094°58'2 4.9
2018-Feb-19 10:00N 29°37' W 094°59'2 4.3
2018-Feb-19 09:30N 29°37' W 095°01'3 6.5
2018-Feb-19 09:01N 29°37' W 094°58'3 6.6
2018-Feb-19 08:30N 29°40' W 094°59'3 6.5
2018-Feb-19 08:01N 29°43' W 095°01'3 6.0
2018-Feb-19 07:30N 29°45' W 095°04'2 4.6
2018-Feb-19 07:00N 29°46' W 095°06'0 0.3
2018-Feb-19 05:57N 29°46' W 095°06'0 0.0
2018-Feb-19 05:30N 29°46' W 095°06'0 0.0
2018-Feb-17 06:45N 29°46' W 095°06'0 0.0
2018-Feb-16 05:34N 29°46' W 095°06'0 0.0
2018-Feb-16 05:17N 29°46' W 095°06'0 0.0
2018-Feb-16 04:55N 29°46' W 095°06'0 0.0
2018-Feb-16 04:28N 29°46' W 095°06'0 0.0
2018-Feb-16 03:57N 29°46' W 095°06'0 0.0
2018-Feb-16 03:14N 29°46' W 095°06'0 0.0
2018-Feb-16 02:58N 29°46' W 095°06'0 0.0
2018-Feb-16 02:20N 29°46' W 095°06'0 0.0
2018-Feb-16 01:54N 29°46' W 095°06'0 0.0
2018-Feb-15 09:06N 29°46' W 095°06'0 0.1
2018-Feb-15 08:59N 29°46' W 095°06'0 0.0
2018-Feb-15 04:45N 29°46' W 095°06'0 0.0
2018-Feb-15 04:19N 29°46' W 095°06'0 0.0
2018-Feb-14 18:48N 29°46' W 095°06'  
Track history (hours):
 
Tides and Currents Weather Stations Pressure Air Temp Water Temp Dewpoint Dewpoint Depression Visibility Wind Speed Wind Dir Waves Ship Positions

Sid Moller

Owner: Genesis Marine, LLC, Houston, TX. More information available from US FCC via Universal Licensing System and Coast Guard Vessel Documentation Center.

Last reported at 2018-Feb-20 07:52 UTC. Time now 2018-Feb-21 03:55 UTC.
Position N 29°46' W 095°06'.

Length 28 m; draft 3 m.

Type: Towing. MMSI: 367504980.

Date/timePositionNaut miles runAvg speedWind from/ knotsBaromVisibWave heightAir tempDewpointWater temp
2018-Feb-20 07:52N 29°46' W 095°06'0 0.0
2018-Feb-19 14:01N 29°46' W 095°06'0 0.0
2018-Feb-19 13:48N 29°46' W 095°06'0 0.0
2018-Feb-19 12:04N 29°46' W 095°06'1 4.2
2018-Feb-19 11:56N 29°46' W 095°06'3 6.6
2018-Feb-19 11:27N 29°44' W 095°03'3 6.2
2018-Feb-19 11:00N 29°42' W 095°00'3 6.8
2018-Feb-19 10:30N 29°39' W 094°58'2 4.9
2018-Feb-19 10:00N 29°37' W 094°59'2 4.3
2018-Feb-19 09:30N 29°37' W 095°01'3 6.5
2018-Feb-19 09:01N 29°37' W 094°58'3 6.6
2018-Feb-19 08:30N 29°40' W 094°59'3 6.5
2018-Feb-19 08:01N 29°43' W 095°01'3 6.0
2018-Feb-19 07:30N 29°45' W 095°04'2 4.6
2018-Feb-19 07:00N 29°46' W 095°06'0 0.3
2018-Feb-19 05:57N 29°46' W 095°06'0 0.0
2018-Feb-19 05:30N 29°46' W 095°06'0 0.0
2018-Feb-17 06:45N 29°46' W 095°06'0 0.0
2018-Feb-16 05:34N 29°46' W 095°06'0 0.0
2018-Feb-16 05:17N 29°46' W 095°06'0 0.0
2018-Feb-16 04:55N 29°46' W 095°06'0 0.0
2018-Feb-16 04:28N 29°46' W 095°06'0 0.0
2018-Feb-16 03:57N 29°46' W 095°06'0 0.0
2018-Feb-16 03:14N 29°46' W 095°06'0 0.0
2018-Feb-16 02:58N 29°46' W 095°06'0 0.0
2018-Feb-16 02:20N 29°46' W 095°06'0 0.0
2018-Feb-16 01:54N 29°46' W 095°06'0 0.0
2018-Feb-15 09:06N 29°46' W 095°06'0 0.1
2018-Feb-15 08:59N 29°46' W 095°06'0 0.0
2018-Feb-15 04:45N 29°46' W 095°06'0 0.0
2018-Feb-15 04:19N 29°46' W 095°06'0 0.0
2018-Feb-14 18:48N 29°46' W 095°06'  

Dump ship's entire track history